Gure Amuitz — EASO — position and weather

sailwx.info

Track history (hours):
 
Tides and Currents Weather Stations Pressure Air Temp Water Temp Dewpoint Dewpoint Depression Visibility Wind Speed Wind Dir Waves Ship Positions

Gure Amuitz

Last reported at 2016-Jun-29 07:12 UTC. Time now 2016-Jun-29 16:36 UTC.
Position N 43°23' W 001°48'.

Length 28 m.

Type: Fishing. MMSI: 224010590.

Date/timePositionNaut miles runAvg speedWind from/ knotsBaromVisibWave heightAir tempDewpointWater temp
2016-Jun-29 07:12N 43°23' W 001°48'0 0.0
2016-Jun-29 06:23N 43°23' W 001°48'0 0.0
2016-Jun-29 05:29N 43°23' W 001°48'0 0.0
2016-Jun-29 04:34N 43°23' W 001°48'0 0.0
2016-Jun-29 03:32N 43°23' W 001°48'0 0.0
2016-Jun-28 15:04N 43°23' W 001°48'0 0.0
2016-Jun-28 14:12N 43°23' W 001°48'0 0.0
2016-Jun-28 12:32N 43°23' W 001°48'0 0.0
2016-Jun-28 02:23N 43°23' W 001°48'  
2016-Jun-23 12:34N 43°30' W 001°58'14 0.8
2016-Jun-22 19:25N 43°37' W 001°42'11 9.1
2016-Jun-22 18:15N 43°27' W 001°46'4 5.9
2016-Jun-22 17:33N 43°23' W 001°48'0 0.0
2016-Jun-22 16:32N 43°23' W 001°47'0 0.0
2016-Jun-22 15:33N 43°23' W 001°47'0 0.0
2016-Jun-22 14:33N 43°23' W 001°48'0 0.0
2016-Jun-22 13:33N 43°23' W 001°47'0 0.0
2016-Jun-22 12:33N 43°23' W 001°47'0 0.0
2016-Jun-22 11:33N 43°23' W 001°47'0 0.0
2016-Jun-22 10:33N 43°23' W 001°47'0 0.0
2016-Jun-22 09:33N 43°23' W 001°47'0 0.0
2016-Jun-22 08:33N 43°23' W 001°47'0 0.0
2016-Jun-22 07:33N 43°23' W 001°47'0 0.0
2016-Jun-22 06:24N 43°23' W 001°47'0 0.0
2016-Jun-21 21:11N 43°23' W 001°47'0 0.0
2016-Jun-21 20:33N 43°23' W 001°47'0 0.0
2016-Jun-21 19:32N 43°23' W 001°47'0 0.0
2016-Jun-21 16:14N 43°23' W 001°47'0 0.0
2016-Jun-21 15:33N 43°23' W 001°47'0 0.0
2016-Jun-21 14:33N 43°23' W 001°47'0 0.0
2016-Jun-21 13:33N 43°23' W 001°47'0 0.0
2016-Jun-21 12:33N 43°23' W 001°47'0 0.0
2016-Jun-21 11:33N 43°23' W 001°47'0 0.0
2016-Jun-21 10:33N 43°23' W 001°47'0 0.0
2016-Jun-21 09:33N 43°23' W 001°47'0 0.0
2016-Jun-21 08:33N 43°23' W 001°47'0 0.0
2016-Jun-21 07:21N 43°23' W 001°47'0 0.0
2016-Jun-21 06:33N 43°23' W 001°47'0 0.1
2016-Jun-21 04:33N 43°23' W 001°48'0 0.0
2016-Jun-21 03:32N 43°23' W 001°48'0 0.0
2016-Jun-21 02:33N 43°23' W 001°48'0 0.0
2016-Jun-21 01:33N 43°23' W 001°48'0 0.0
2016-Jun-21 00:33N 43°23' W 001°48'0 0.0
2016-Jun-20 23:33N 43°23' W 001°48'0 0.0
2016-Jun-20 22:33N 43°23' W 001°48'9 8.8
2016-Jun-20 21:33N 43°32' W 001°46'13 9.8
2016-Jun-20 20:16N 43°45' W 001°44'29 9.2
2016-Jun-20 17:09N 44°13' W 001°40'0 0.3
2016-Jun-20 16:33N 44°13' W 001°40'3 2.5
2016-Jun-20 15:33N 44°11' W 001°41'32 5.1
2016-Jun-20 09:19N 43°39' W 001°47'7 8.8
2016-Jun-20 08:33N 43°32' W 001°47'9 8.9
2016-Jun-20 07:33N 43°23' W 001°47'1 0.5
2016-Jun-20 06:33N 43°23' W 001°47'0 0.0
2016-Jun-19 21:23N 43°23' W 001°47'0 0.0
2016-Jun-19 20:32N 43°23' W 001°47'0 0.0
2016-Jun-19 19:32N 43°23' W 001°47'0 0.0
2016-Jun-19 18:33N 43°23' W 001°47'0 0.0
2016-Jun-19 13:03N 43°23' W 001°47'0 0.0
2016-Jun-19 12:33N 43°23' W 001°47'0 0.0
2016-Jun-19 11:33N 43°23' W 001°47'0 0.0
2016-Jun-19 10:33N 43°23' W 001°47'0 0.0
2016-Jun-19 09:33N 43°23' W 001°47'  
Track history (hours):
 
Tides and Currents Weather Stations Pressure Air Temp Water Temp Dewpoint Dewpoint Depression Visibility Wind Speed Wind Dir Waves Ship Positions

Gure Amuitz

Last reported at 2016-Jun-29 07:12 UTC. Time now 2016-Jun-29 16:36 UTC.
Position N 43°23' W 001°48'.

Length 28 m.

Type: Fishing. MMSI: 224010590.

Date/timePositionNaut miles runAvg speedWind from/ knotsBaromVisibWave heightAir tempDewpointWater temp
2016-Jun-29 07:12N 43°23' W 001°48'0 0.0
2016-Jun-29 06:23N 43°23' W 001°48'0 0.0
2016-Jun-29 05:29N 43°23' W 001°48'0 0.0
2016-Jun-29 04:34N 43°23' W 001°48'0 0.0
2016-Jun-29 03:32N 43°23' W 001°48'0 0.0
2016-Jun-28 15:04N 43°23' W 001°48'0 0.0
2016-Jun-28 14:12N 43°23' W 001°48'0 0.0
2016-Jun-28 12:32N 43°23' W 001°48'0 0.0
2016-Jun-28 02:23N 43°23' W 001°48'  
2016-Jun-23 12:34N 43°30' W 001°58'14 0.8
2016-Jun-22 19:25N 43°37' W 001°42'11 9.1
2016-Jun-22 18:15N 43°27' W 001°46'4 5.9
2016-Jun-22 17:33N 43°23' W 001°48'0 0.0
2016-Jun-22 16:32N 43°23' W 001°47'0 0.0
2016-Jun-22 15:33N 43°23' W 001°47'0 0.0
2016-Jun-22 14:33N 43°23' W 001°48'0 0.0
2016-Jun-22 13:33N 43°23' W 001°47'0 0.0
2016-Jun-22 12:33N 43°23' W 001°47'0 0.0
2016-Jun-22 11:33N 43°23' W 001°47'0 0.0
2016-Jun-22 10:33N 43°23' W 001°47'0 0.0
2016-Jun-22 09:33N 43°23' W 001°47'0 0.0
2016-Jun-22 08:33N 43°23' W 001°47'0 0.0
2016-Jun-22 07:33N 43°23' W 001°47'0 0.0
2016-Jun-22 06:24N 43°23' W 001°47'0 0.0
2016-Jun-21 21:11N 43°23' W 001°47'0 0.0
2016-Jun-21 20:33N 43°23' W 001°47'0 0.0
2016-Jun-21 19:32N 43°23' W 001°47'0 0.0
2016-Jun-21 16:14N 43°23' W 001°47'0 0.0
2016-Jun-21 15:33N 43°23' W 001°47'0 0.0
2016-Jun-21 14:33N 43°23' W 001°47'0 0.0
2016-Jun-21 13:33N 43°23' W 001°47'0 0.0
2016-Jun-21 12:33N 43°23' W 001°47'0 0.0
2016-Jun-21 11:33N 43°23' W 001°47'0 0.0
2016-Jun-21 10:33N 43°23' W 001°47'0 0.0
2016-Jun-21 09:33N 43°23' W 001°47'0 0.0
2016-Jun-21 08:33N 43°23' W 001°47'0 0.0
2016-Jun-21 07:21N 43°23' W 001°47'0 0.0
2016-Jun-21 06:33N 43°23' W 001°47'0 0.1
2016-Jun-21 04:33N 43°23' W 001°48'0 0.0
2016-Jun-21 03:32N 43°23' W 001°48'0 0.0
2016-Jun-21 02:33N 43°23' W 001°48'0 0.0
2016-Jun-21 01:33N 43°23' W 001°48'0 0.0
2016-Jun-21 00:33N 43°23' W 001°48'0 0.0
2016-Jun-20 23:33N 43°23' W 001°48'0 0.0
2016-Jun-20 22:33N 43°23' W 001°48'9 8.8
2016-Jun-20 21:33N 43°32' W 001°46'13 9.8
2016-Jun-20 20:16N 43°45' W 001°44'29 9.2
2016-Jun-20 17:09N 44°13' W 001°40'0 0.3
2016-Jun-20 16:33N 44°13' W 001°40'3 2.5
2016-Jun-20 15:33N 44°11' W 001°41'32 5.1
2016-Jun-20 09:19N 43°39' W 001°47'7 8.8
2016-Jun-20 08:33N 43°32' W 001°47'9 8.9
2016-Jun-20 07:33N 43°23' W 001°47'1 0.5
2016-Jun-20 06:33N 43°23' W 001°47'0 0.0
2016-Jun-19 21:23N 43°23' W 001°47'0 0.0
2016-Jun-19 20:32N 43°23' W 001°47'0 0.0
2016-Jun-19 19:32N 43°23' W 001°47'0 0.0
2016-Jun-19 18:33N 43°23' W 001°47'0 0.0
2016-Jun-19 13:03N 43°23' W 001°47'0 0.0
2016-Jun-19 12:33N 43°23' W 001°47'0 0.0
2016-Jun-19 11:33N 43°23' W 001°47'0 0.0
2016-Jun-19 10:33N 43°23' W 001°47'0 0.0
2016-Jun-19 09:33N 43°23' W 001°47'  

Dump ship's entire track history